Time;durP1;ratioP1;P1;durP2;ratioP2;P2;SDS_P1;SDS_P2;PMS_P1;PMS_P2;Temp;Humidity;BMP_temperature;BMP_pressure;BME280_temperature;BME280_humidity;BME280_pressure;Samples;Min_cycle;Max_cycle;Signal;HPM_P1;HPM_P2
2022/12/22 03:27:20;;;;;;;;;;;21.80;32.90;;;;;;500168;238;2188;-41
2022/12/22 03:29:21;;;;;;;;;;;21.80;32.80;;;;;;500120;237;2813;-44
2022/12/22 03:31:23;;;;;;;;;;;21.80;32.80;;;;;;500282;237;2209;-40
2022/12/22 03:33:24;;;;;;;;;;;21.80;32.70;;;;;;500444;237;2087;-43
2022/12/22 03:35:25;;;;;;;;;;;21.80;32.80;;;;;;500294;238;2326;-43
2022/12/22 03:37:27;;;;;;;;;;;21.90;32.80;;;;;;500427;237;2064;-43
2022/12/22 03:39:28;;;;;;;;;;;21.80;32.70;;;;;;500346;237;1950;-44
2022/12/22 03:48:29;;;;;;;;;;;21.80;32.70;;;;;;499990;238;1954;-43
2022/12/22 03:50:30;;;;;;;;;;;21.80;32.70;;;;;;500143;237;1788;-43
2022/12/22 03:52:32;;;;;;;;;;;21.80;32.80;;;;;;500064;237;2688;-44
2022/12/22 03:54:33;;;;;;;;;;;21.80;32.80;;;;;;500102;237;2414;-41
2022/12/22 03:56:36;;;;;;;;;;;21.80;32.80;;;;;;500061;237;1710;-44
2022/12/22 03:58:37;;;;;;;;;;;21.90;32.80;;;;;;500143;237;2231;-44
2022/12/22 04:00:38;;;;;;;;;;;21.80;32.70;;;;;;500029;237;2215;-44
2022/12/22 04:02:40;;;;;;;;;;;21.80;32.80;;;;;;500020;237;2639;-44
2022/12/22 04:04:41;;;;;;;;;;;21.80;32.80;;;;;;500026;237;2999;-44
2022/12/22 04:06:42;;;;;;;;;;;21.80;32.80;;;;;;499930;237;2818;-41
2022/12/22 04:08:44;;;;;;;;;;;21.80;32.80;;;;;;500012;237;2203;-44
2022/12/22 04:13:05;;;;;;;;;;;21.90;32.80;;;;;;500165;238;1916;-44
2022/12/22 04:15:06;;;;;;;;;;;21.90;32.70;;;;;;500082;237;1907;-43
2022/12/22 04:17:08;;;;;;;;;;;21.80;32.70;;;;;;500150;237;1811;-44
2022/12/22 04:19:09;;;;;;;;;;;21.90;32.80;;;;;;500082;237;2085;-44
2022/12/22 04:21:11;;;;;;;;;;;21.90;32.80;;;;;;499935;237;2219;-44
2022/12/22 04:23:12;;;;;;;;;;;21.90;32.80;;;;;;500121;237;2237;-43
2022/12/22 04:25:13;;;;;;;;;;;21.90;32.80;;;;;;500120;237;1751;-44
2022/12/22 04:27:15;;;;;;;;;;;21.90;32.70;;;;;;499943;237;1797;-44
2022/12/22 04:29:16;;;;;;;;;;;21.90;32.70;;;;;;500318;237;2033;-44
2022/12/22 04:31:17;;;;;;;;;;;21.90;32.70;;;;;;500095;238;2086;-41
2022/12/22 04:33:19;;;;;;;;;;;21.90;32.70;;;;;;500266;237;2011;-44
2022/12/22 04:35:20;;;;;;;;;;;21.90;32.70;;;;;;500212;237;1835;-44
2022/12/22 04:37:22;;;;;;;;;;;21.90;32.70;;;;;;500209;237;1886;-44
2022/12/22 04:39:24;;;;;;;;;;;21.90;32.70;;;;;;500185;237;2102;-44
2022/12/22 04:41:25;;;;;;;;;;;21.90;32.60;;;;;;500167;237;2191;-44
2022/12/22 04:43:27;;;;;;;;;;;22.00;32.70;;;;;;500121;237;1780;-40
2022/12/22 04:45:28;;;;;;;;;;;21.90;32.70;;;;;;500148;237;1710;-40
2022/12/22 04:47:30;;;;;;;;;;;21.90;32.70;;;;;;500254;237;1926;-44
2022/12/22 04:49:31;;;;;;;;;;;21.90;32.70;;;;;;500050;237;1992;-44
2022/12/22 04:51:33;;;;;;;;;;;21.90;32.70;;;;;;500143;237;1845;-44
2022/12/22 04:53:34;;;;;;;;;;;21.90;32.70;;;;;;500031;237;1911;-44
2022/12/22 04:55:36;;;;;;;;;;;22.00;32.70;;;;;;500019;237;2168;-44
2022/12/22 04:57:37;;;;;;;;;;;21.90;32.70;;;;;;499983;238;2687;-41
2022/12/22 04:59:39;;;;;;;;;;;21.90;32.70;;;;;;500050;237;2336;-44
2022/12/22 05:01:40;;;;;;;;;;;22.00;32.70;;;;;;500079;237;2184;-44
2022/12/22 05:03:41;;;;;;;;;;;21.90;32.70;;;;;;500127;237;2177;-44
2022/12/22 05:05:43;;;;;;;;;;;21.90;32.70;;;;;;500253;237;2354;-44
2022/12/22 05:07:44;;;;;;;;;;;22.00;32.70;;;;;;500374;237;2123;-43
2022/12/22 05:09:45;;;;;;;;;;;21.90;32.70;;;;;;500354;237;2469;-44
2022/12/22 05:11:47;;;;;;;;;;;22.00;32.70;;;;;;500476;237;2177;-40
2022/12/22 05:13:48;;;;;;;;;;;22.00;32.70;;;;;;500556;237;1745;-43
2022/12/22 05:15:50;;;;;;;;;;;21.90;32.70;;;;;;500332;237;1985;-43
2022/12/22 05:17:51;;;;;;;;;;;22.00;32.80;;;;;;500538;237;2174;-42
2022/12/22 05:19:52;;;;;;;;;;;21.90;32.70;;;;;;500091;238;2549;-41
2022/12/22 05:21:54;;;;;;;;;;;21.90;32.70;;;;;;500574;237;2117;-41
2022/12/22 05:23:55;;;;;;;;;;;21.90;32.70;;;;;;500576;237;1700;-43
2022/12/22 05:25:57;;;;;;;;;;;21.90;32.80;;;;;;500545;237;1987;-44
2022/12/22 05:27:58;;;;;;;;;;;21.90;32.90;;;;;;500453;237;2111;-44
2022/12/22 05:30:00;;;;;;;;;;;21.90;32.90;;;;;;500589;237;1901;-41
2022/12/22 05:32:01;;;;;;;;;;;21.90;32.90;;;;;;500575;237;2192;-44
2022/12/22 05:34:03;;;;;;;;;;;21.90;32.90;;;;;;500551;237;1895;-42
2022/12/22 05:36:04;;;;;;;;;;;21.80;32.80;;;;;;500443;237;2652;-44
2022/12/22 05:38:06;;;;;;;;;;;21.90;32.80;;;;;;500327;237;2340;-41
2022/12/22 05:40:07;;;;;;;;;;;21.90;32.90;;;;;;500415;237;1943;-44
2022/12/22 05:42:09;;;;;;;;;;;21.90;32.90;;;;;;500126;237;2224;-42
2022/12/22 05:44:10;;;;;;;;;;;21.90;32.90;;;;;;500318;237;2173;-43
2022/12/22 05:46:12;;;;;;;;;;;21.80;33.00;;;;;;500509;237;2118;-40
2022/12/22 05:48:15;;;;;;;;;;;21.80;33.00;;;;;;500209;237;1974;-44
2022/12/22 05:50:16;;;;;;;;;;;21.70;33.00;;;;;;500141;237;2453;-43
2022/12/22 05:52:17;;;;;;;;;;;21.80;33.10;;;;;;500048;237;1912;-44
2022/12/22 05:54:19;;;;;;;;;;;21.80;33.00;;;;;;500251;237;1948;-41
2022/12/22 05:56:21;;;;;;;;;;;21.80;33.10;;;;;;500064;237;1712;-43
2022/12/22 05:58:22;;;;;;;;;;;21.70;33.00;;;;;;500250;237;2920;-43
2022/12/22 06:00:24;;;;;;;;;;;21.70;33.10;;;;;;500090;237;2176;-44
2022/12/22 06:02:26;;;;;;;;;;;21.70;33.10;;;;;;500103;237;2103;-44
2022/12/22 06:04:27;;;;;;;;;;;21.60;33.20;;;;;;500313;237;2816;-43
2022/12/22 06:06:29;;;;;;;;;;;21.70;33.20;;;;;;500270;237;2434;-44
2022/12/22 06:08:30;;;;;;;;;;;21.70;33.10;;;;;;500153;237;1854;-43
2022/12/22 06:10:31;;;;;;;;;;;21.70;33.10;;;;;;500183;237;2569;-42
2022/12/22 06:12:33;;;;;;;;;;;21.70;33.20;;;;;;500119;237;1836;-43
2022/12/22 06:14:34;;;;;;;;;;;21.70;33.20;;;;;;499807;238;2082;-44
2022/12/22 06:16:37;;;;;;;;;;;21.70;33.20;;;;;;500152;237;1860;-44
2022/12/22 06:18:39;;;;;;;;;;;21.70;33.20;;;;;;500362;237;1902;-42
2022/12/22 06:20:40;;;;;;;;;;;21.60;33.20;;;;;;500302;238;2167;-43
2022/12/22 06:22:41;;;;;;;;;;;21.60;33.20;;;;;;500198;237;2351;-43
2022/12/22 06:24:43;;;;;;;;;;;21.60;33.20;;;;;;500287;237;2018;-43
2022/12/22 06:26:44;;;;;;;;;;;21.60;33.20;;;;;;500192;237;2024;-44
2022/12/22 06:28:45;;;;;;;;;;;21.60;33.30;;;;;;500246;237;2409;-44
2022/12/22 06:30:47;;;;;;;;;;;21.60;33.30;;;;;;500334;237;1952;-43
2022/12/22 06:32:48;;;;;;;;;;;21.60;33.30;;;;;;500261;237;2277;-44
2022/12/22 06:34:49;;;;;;;;;;;21.60;33.30;;;;;;500547;237;3239;-43
2022/12/22 06:36:51;;;;;;;;;;;21.60;33.30;;;;;;500382;237;2089;-43
2022/12/22 06:38:52;;;;;;;;;;;21.60;33.30;;;;;;500328;237;1945;-43
2022/12/22 06:40:54;;;;;;;;;;;21.60;33.30;;;;;;500017;237;2156;-43
2022/12/22 06:43:08;;;;;;;;;;;21.60;33.40;;;;;;500067;237;2221;-44
2022/12/22 06:45:10;;;;;;;;;;;21.70;33.20;;;;;;500323;237;2604;-44
2022/12/22 06:47:11;;;;;;;;;;;21.90;32.70;;;;;;500163;237;1951;-41
2022/12/22 06:49:12;;;;;;;;;;;22.10;32.50;;;;;;500148;237;2447;-43
2022/12/22 06:51:14;;;;;;;;;;;22.30;32.30;;;;;;500173;237;2247;-43
2022/12/22 06:53:15;;;;;;;;;;;22.40;32.00;;;;;;500502;237;1694;-44
2022/12/22 06:55:16;;;;;;;;;;;22.50;31.90;;;;;;500254;237;1845;-44
2022/12/22 06:57:18;;;;;;;;;;;22.60;31.80;;;;;;500075;237;1721;-44
2022/12/22 06:59:19;;;;;;;;;;;22.60;31.80;;;;;;500196;237;1931;-44
2022/12/22 07:01:21;;;;;;;;;;;22.50;31.90;;;;;;500101;237;2152;-43
2022/12/22 07:03:22;;;;;;;;;;;22.30;32.10;;;;;;500260;237;2157;-43
2022/12/22 07:05:23;;;;;;;;;;;22.20;32.40;;;;;;500213;237;1746;-41
2022/12/22 07:07:25;;;;;;;;;;;22.10;32.60;;;;;;500123;237;3422;-42
2022/12/22 07:09:26;;;;;;;;;;;22.00;32.70;;;;;;500174;237;2090;-44
2022/12/22 07:11:27;;;;;;;;;;;22.00;32.80;;;;;;500057;237;2151;-42
2022/12/22 07:13:30;;;;;;;;;;;21.90;32.90;;;;;;500339;237;2105;-44
2022/12/22 07:15:30;;;;;;;;;;;21.90;32.90;;;;;;500086;238;1672;-41
2022/12/22 07:17:32;;;;;;;;;;;21.90;32.90;;;;;;500016;237;2042;-43
2022/12/22 07:19:34;;;;;;;;;;;21.90;32.90;;;;;;500114;237;2049;-42
2022/12/22 07:21:35;;;;;;;;;;;21.90;32.90;;;;;;499910;237;2210;-41
2022/12/22 07:23:37;;;;;;;;;;;21.90;32.90;;;;;;500092;237;2312;-41
2022/12/22 07:25:38;;;;;;;;;;;21.90;32.90;;;;;;500065;237;2554;-44
2022/12/22 07:27:40;;;;;;;;;;;21.90;32.90;;;;;;500061;237;2057;-43
2022/12/22 07:29:41;;;;;;;;;;;22.00;32.90;;;;;;500226;237;2005;-44
2022/12/22 07:31:43;;;;;;;;;;;22.00;32.90;;;;;;499957;237;2572;-44
2022/12/22 07:33:44;;;;;;;;;;;21.90;32.90;;;;;;500048;237;2055;-44
2022/12/22 07:35:46;;;;;;;;;;;22.00;32.90;;;;;;500022;237;1874;-44
2022/12/22 07:37:47;;;;;;;;;;;22.00;32.90;;;;;;499900;237;1983;-41
2022/12/22 07:39:49;;;;;;;;;;;22.00;32.90;;;;;;500095;237;1886;-43
2022/12/22 07:44:10;;;;;;;;;;;22.00;32.90;;;;;;500047;238;1971;-41
2022/12/22 07:46:11;;;;;;;;;;;22.00;32.90;;;;;;500161;237;2141;-43
2022/12/22 07:50:34;;;;;;;;;;;22.00;33.00;;;;;;499991;238;2967;-44
2022/12/22 07:52:35;;;;;;;;;;;22.00;33.00;;;;;;499850;237;2074;-44
2022/12/22 07:54:37;;;;;;;;;;;22.00;32.90;;;;;;499877;237;2916;-44
2022/12/22 07:56:38;;;;;;;;;;;22.00;32.90;;;;;;499887;237;2671;-41
2022/12/22 07:58:39;;;;;;;;;;;22.00;32.90;;;;;;499893;237;1698;-42
2022/12/22 08:00:41;;;;;;;;;;;22.00;32.90;;;;;;500014;237;2017;-43
2022/12/22 08:02:44;;;;;;;;;;;22.00;32.90;;;;;;499906;237;2176;-44
2022/12/22 08:04:47;;;;;;;;;;;22.10;32.90;;;;;;500107;237;2101;-41
2022/12/22 08:06:48;;;;;;;;;;;22.10;32.90;;;;;;499882;237;2675;-43
2022/12/22 08:08:50;;;;;;;;;;;22.10;32.90;;;;;;500055;237;1986;-43
2022/12/22 08:10:51;;;;;;;;;;;22.10;33.00;;;;;;499987;237;2303;-44
2022/12/22 08:12:53;;;;;;;;;;;22.10;32.90;;;;;;499977;237;2030;-44
2022/12/22 08:14:56;;;;;;;;;;;22.10;32.90;;;;;;499946;238;2391;-44
2022/12/22 08:16:58;;;;;;;;;;;22.10;32.90;;;;;;499861;237;2028;-43
2022/12/22 08:18:59;;;;;;;;;;;22.10;32.90;;;;;;499905;237;1852;-43
2022/12/22 08:21:01;;;;;;;;;;;22.10;33.00;;;;;;500048;237;1897;-44
2022/12/22 08:23:02;;;;;;;;;;;22.10;33.00;;;;;;500196;237;2235;-43
2022/12/22 08:25:03;;;;;;;;;;;22.10;33.00;;;;;;499923;238;1838;-44
2022/12/22 08:27:05;;;;;;;;;;;22.10;33.00;;;;;;500023;238;2556;-44
2022/12/22 08:29:07;;;;;;;;;;;22.10;33.00;;;;;;500205;237;2097;-43
2022/12/22 08:31:09;;;;;;;;;;;22.10;33.00;;;;;;500237;237;2487;-40
2022/12/22 08:33:10;;;;;;;;;;;22.20;33.00;;;;;;500141;237;2362;-44
2022/12/22 08:35:11;;;;;;;;;;;22.10;32.90;;;;;;500235;237;2130;-43
2022/12/22 08:37:13;;;;;;;;;;;22.10;33.00;;;;;;500232;237;1665;-42
2022/12/22 08:39:14;;;;;;;;;;;22.10;33.00;;;;;;500218;237;1771;-44
2022/12/22 08:41:48;;;;;;;;;;;22.20;33.00;;;;;;500221;237;2220;-41
2022/12/22 08:43:17;;;;;;;;;;;22.20;33.00;;;;;;498506;238;1775;-41
2022/12/22 08:45:18;;;;;;;;;;;22.20;33.00;;;;;;500118;237;1876;-45
2022/12/22 08:47:20;;;;;;;;;;;22.10;33.00;;;;;;500272;237;1749;-44
2022/12/22 08:49:21;;;;;;;;;;;22.20;33.00;;;;;;500074;238;2040;-44
2022/12/22 08:51:22;;;;;;;;;;;22.20;33.10;;;;;;500280;237;1860;-42
2022/12/22 08:53:24;;;;;;;;;;;22.20;33.00;;;;;;500154;237;1728;-44
2022/12/22 08:55:25;;;;;;;;;;;22.20;33.00;;;;;;500018;237;1946;-44
2022/12/22 08:57:27;;;;;;;;;;;22.20;33.00;;;;;;499977;237;1902;-44
2022/12/22 08:59:28;;;;;;;;;;;22.20;33.00;;;;;;499980;238;1940;-40
2022/12/22 09:01:29;;;;;;;;;;;22.20;33.00;;;;;;500041;237;2308;-44
2022/12/22 09:03:31;;;;;;;;;;;22.20;33.10;;;;;;499989;237;2984;-43
2022/12/22 09:05:32;;;;;;;;;;;22.20;33.10;;;;;;499977;237;2032;-44
2022/12/22 09:07:34;;;;;;;;;;;22.20;33.00;;;;;;499947;237;1894;-44
2022/12/22 09:09:36;;;;;;;;;;;22.20;33.00;;;;;;500190;238;1862;-44
2022/12/22 09:11:37;;;;;;;;;;;22.20;33.00;;;;;;499999;237;1748;-44
2022/12/22 09:13:39;;;;;;;;;;;22.20;33.00;;;;;;500191;237;2234;-44
2022/12/22 09:15:40;;;;;;;;;;;22.20;33.00;;;;;;500151;237;2059;-44
2022/12/22 09:17:42;;;;;;;;;;;22.20;33.10;;;;;;500152;237;2213;-43
2022/12/22 09:19:43;;;;;;;;;;;22.20;33.10;;;;;;500182;237;2077;-45
2022/12/22 09:21:45;;;;;;;;;;;22.20;33.00;;;;;;500229;237;2176;-43
2022/12/22 09:23:46;;;;;;;;;;;22.20;33.00;;;;;;500284;237;1765;-41
2022/12/22 09:25:47;;;;;;;;;;;22.20;33.10;;;;;;500196;237;1822;-41
2022/12/22 09:27:49;;;;;;;;;;;22.20;33.10;;;;;;500139;237;1732;-40
2022/12/22 09:29:51;;;;;;;;;;;22.20;33.00;;;;;;499978;237;1827;-43
2022/12/22 09:31:55;;;;;;;;;;;22.30;33.10;;;;;;500045;237;1662;-44
2022/12/22 09:33:57;;;;;;;;;;;22.20;33.00;;;;;;500416;237;1679;-41
2022/12/22 09:35:58;;;;;;;;;;;22.20;33.10;;;;;;500158;237;1881;-41
2022/12/22 09:38:00;;;;;;;;;;;22.20;33.10;;;;;;500039;237;1710;-44
2022/12/22 09:40:01;;;;;;;;;;;22.10;33.10;;;;;;500098;237;1650;-42
2022/12/22 09:42:03;;;;;;;;;;;22.20;33.20;;;;;;500267;237;2144;-44
2022/12/22 09:44:05;;;;;;;;;;;22.10;33.20;;;;;;500145;237;1949;-41
2022/12/22 09:46:08;;;;;;;;;;;22.10;33.20;;;;;;500203;237;2011;-44
2022/12/22 09:48:10;;;;;;;;;;;22.10;33.20;;;;;;500047;237;2657;-41
2022/12/22 09:50:11;;;;;;;;;;;22.10;33.30;;;;;;500005;237;1777;-41
2022/12/22 09:52:13;;;;;;;;;;;22.10;33.40;;;;;;500047;237;1908;-44
2022/12/22 09:54:14;;;;;;;;;;;22.10;33.40;;;;;;500073;237;1744;-43
2022/12/22 09:56:16;;;;;;;;;;;22.10;33.40;;;;;;500102;237;3826;-44
2022/12/22 09:58:18;;;;;;;;;;;22.00;33.40;;;;;;499956;237;1833;-44
2022/12/22 10:00:19;;;;;;;;;;;22.00;33.50;;;;;;500029;237;1839;-44
2022/12/22 10:02:21;;;;;;;;;;;22.00;33.60;;;;;;499672;237;2184;-43
2022/12/22 10:04:22;;;;;;;;;;;21.90;33.50;;;;;;499923;237;2156;-43
2022/12/22 10:06:26;;;;;;;;;;;22.00;33.50;;;;;;499728;237;2661;-41
2022/12/22 10:08:27;;;;;;;;;;;22.00;33.60;;;;;;499885;237;1801;-41
2022/12/22 10:10:29;;;;;;;;;;;22.00;33.60;;;;;;499876;237;2350;-44
2022/12/22 10:12:30;;;;;;;;;;;21.90;33.50;;;;;;499775;237;2483;-44
2022/12/22 10:14:31;;;;;;;;;;;22.00;33.70;;;;;;499952;237;1986;-44
2022/12/22 10:16:33;;;;;;;;;;;22.00;33.80;;;;;;499988;237;2158;-41
2022/12/22 10:18:34;;;;;;;;;;;21.90;33.70;;;;;;499826;237;1780;-43
2022/12/22 10:20:37;;;;;;;;;;;21.90;33.70;;;;;;499907;237;2132;-43
2022/12/22 10:22:38;;;;;;;;;;;21.90;33.70;;;;;;500029;237;2200;-44
2022/12/22 10:24:40;;;;;;;;;;;21.90;33.70;;;;;;500012;237;1950;-42
2022/12/22 10:26:42;;;;;;;;;;;21.90;33.70;;;;;;500038;237;2672;-43
2022/12/22 10:28:43;;;;;;;;;;;22.00;33.80;;;;;;500008;237;2395;-40
2022/12/22 10:30:44;;;;;;;;;;;21.90;33.80;;;;;;500200;237;2780;-44
2022/12/22 10:32:46;;;;;;;;;;;21.90;33.80;;;;;;500092;237;2100;-44
2022/12/22 10:34:48;;;;;;;;;;;21.90;33.80;;;;;;500117;237;1951;-44
2022/12/22 10:36:49;;;;;;;;;;;21.90;33.80;;;;;;500118;237;2052;-44
2022/12/22 10:38:53;;;;;;;;;;;21.80;33.80;;;;;;500109;237;2101;-40
2022/12/22 10:40:56;;;;;;;;;;;21.90;33.90;;;;;;499973;237;1928;-43
2022/12/22 10:42:57;;;;;;;;;;;21.90;33.90;;;;;;499864;237;2202;-41
2022/12/22 10:44:58;;;;;;;;;;;21.90;33.90;;;;;;499973;237;2018;-43
2022/12/22 10:47:00;;;;;;;;;;;21.90;33.90;;;;;;499929;237;2264;-41
2022/12/22 10:49:01;;;;;;;;;;;21.80;33.80;;;;;;499995;237;2173;-44
2022/12/22 10:51:03;;;;;;;;;;;22.00;33.90;;;;;;499866;237;2321;-44
2022/12/22 10:53:05;;;;;;;;;;;22.10;33.60;;;;;;499904;237;2153;-44
2022/12/22 10:55:07;;;;;;;;;;;22.30;33.30;;;;;;499848;237;2214;-44
2022/12/22 10:57:08;;;;;;;;;;;22.50;33.00;;;;;;499816;237;2254;-44
2022/12/22 10:59:10;;;;;;;;;;;22.60;32.80;;;;;;499980;237;2085;-44
2022/12/22 11:01:11;;;;;;;;;;;22.60;32.80;;;;;;499837;237;2549;-40
2022/12/22 11:03:13;;;;;;;;;;;22.40;32.90;;;;;;500015;237;2176;-43
2022/12/22 11:05:15;;;;;;;;;;;22.30;33.20;;;;;;499978;237;1889;-44
2022/12/22 11:07:17;;;;;;;;;;;22.20;33.30;;;;;;499997;237;1959;-42
2022/12/22 11:09:19;;;;;;;;;;;22.10;33.40;;;;;;499993;238;1995;-43
2022/12/22 11:11:20;;;;;;;;;;;22.20;33.50;;;;;;500016;238;2129;-44
2022/12/22 11:13:22;;;;;;;;;;;22.10;33.50;;;;;;500068;237;2542;-41
2022/12/22 11:15:23;;;;;;;;;;;22.10;33.50;;;;;;499977;237;2492;-43
2022/12/22 11:17:24;;;;;;;;;;;22.10;33.50;;;;;;500121;237;1728;-44
2022/12/22 11:19:26;;;;;;;;;;;22.10;33.50;;;;;;500130;237;2514;-44
2022/12/22 11:21:28;;;;;;;;;;;22.10;33.50;;;;;;500100;237;1820;-44
2022/12/22 11:23:30;;;;;;;;;;;22.10;33.50;;;;;;500109;237;2427;-40
2022/12/22 11:25:31;;;;;;;;;;;22.10;33.40;;;;;;499851;238;2278;-43
2022/12/22 11:27:33;;;;;;;;;;;22.10;33.50;;;;;;500053;237;2226;-40
2022/12/22 11:29:34;;;;;;;;;;;22.10;33.60;;;;;;500004;237;2160;-44
2022/12/22 11:31:36;;;;;;;;;;;22.10;33.60;;;;;;500038;237;1993;-44
2022/12/22 11:33:37;;;;;;;;;;;22.10;33.60;;;;;;499982;237;1688;-44
2022/12/22 11:35:39;;;;;;;;;;;22.10;33.60;;;;;;499924;237;1621;-43
2022/12/22 11:37:41;;;;;;;;;;;22.10;33.60;;;;;;499941;237;1744;-43
2022/12/22 11:39:42;;;;;;;;;;;22.10;33.60;;;;;;500138;237;1893;-44
2022/12/22 11:41:44;;;;;;;;;;;22.10;33.60;;;;;;500089;237;2360;-44
2022/12/22 11:43:45;;;;;;;;;;;22.10;33.70;;;;;;499973;238;2188;-44
2022/12/22 11:45:46;;;;;;;;;;;22.10;33.70;;;;;;500076;237;1647;-44
2022/12/22 11:47:48;;;;;;;;;;;22.10;33.70;;;;;;499971;237;3187;-44
2022/12/22 11:49:50;;;;;;;;;;;22.20;33.60;;;;;;500117;237;2213;-44
2022/12/22 11:51:51;;;;;;;;;;;22.40;33.40;;;;;;499965;237;1793;-44
2022/12/22 11:53:53;;;;;;;;;;;22.50;33.10;;;;;;499933;237;1958;-44
2022/12/22 11:55:58;;;;;;;;;;;22.50;33.00;;;;;;500003;237;1935;-44
2022/12/22 11:57:56;;;;;;;;;;;22.50;33.20;;;;;;499891;238;2022;-44
2022/12/22 11:59:58;;;;;;;;;;;22.40;33.20;;;;;;500155;237;2203;-44
2022/12/22 12:01:59;;;;;;;;;;;22.40;33.40;;;;;;500213;237;1787;-44
2022/12/22 12:04:01;;;;;;;;;;;22.30;33.50;;;;;;500124;237;2184;-43
2022/12/22 12:06:02;;;;;;;;;;;22.30;33.60;;;;;;499989;237;1883;-44
2022/12/22 12:08:03;;;;;;;;;;;22.20;33.60;;;;;;500174;237;1646;-44
2022/12/22 12:10:05;;;;;;;;;;;22.20;33.60;;;;;;500215;237;1828;-44
2022/12/22 12:12:06;;;;;;;;;;;22.20;33.60;;;;;;500421;237;1870;-44
2022/12/22 12:14:08;;;;;;;;;;;22.20;33.70;;;;;;500157;237;1964;-44
2022/12/22 12:16:09;;;;;;;;;;;22.20;33.80;;;;;;500246;237;2713;-44
2022/12/22 12:18:10;;;;;;;;;;;22.20;33.80;;;;;;500111;237;2151;-44
2022/12/22 12:20:12;;;;;;;;;;;22.20;33.90;;;;;;500046;237;2431;-43
2022/12/22 12:22:14;;;;;;;;;;;22.20;33.80;;;;;;499771;237;2175;-44
2022/12/22 12:24:15;;;;;;;;;;;22.20;33.80;;;;;;499922;237;2184;-44
2022/12/22 12:26:16;;;;;;;;;;;22.20;33.90;;;;;;499725;237;1739;-44
2022/12/22 12:28:18;;;;;;;;;;;22.10;33.80;;;;;;499977;237;1801;-42
2022/12/22 12:30:19;;;;;;;;;;;22.10;33.80;;;;;;499890;237;2400;-44
2022/12/22 12:32:21;;;;;;;;;;;22.10;33.90;;;;;;499958;237;2231;-43
2022/12/22 12:34:22;;;;;;;;;;;22.10;33.90;;;;;;500043;237;1992;-44
2022/12/22 12:36:24;;;;;;;;;;;22.10;33.90;;;;;;500042;237;2835;-44
2022/12/22 12:38:26;;;;;;;;;;;22.10;33.90;;;;;;500169;237;2129;-41
2022/12/22 12:40:28;;;;;;;;;;;22.10;33.90;;;;;;500046;237;2476;-43
2022/12/22 12:42:30;;;;;;;;;;;22.10;33.90;;;;;;500068;237;2221;-44
2022/12/22 12:44:32;;;;;;;;;;;22.10;33.90;;;;;;499991;237;2697;-44
2022/12/22 12:46:33;;;;;;;;;;;22.10;34.00;;;;;;499807;237;2214;-44
2022/12/22 12:48:35;;;;;;;;;;;22.10;34.00;;;;;;499851;237;2022;-44
2022/12/22 12:50:37;;;;;;;;;;;22.10;34.00;;;;;;499865;237;1866;-44
2022/12/22 12:52:38;;;;;;;;;;;22.10;34.00;;;;;;499655;237;2337;-40
2022/12/22 12:54:40;;;;;;;;;;;22.10;34.00;;;;;;499924;237;1697;-44
2022/12/22 12:56:41;;;;;;;;;;;22.10;34.00;;;;;;499920;237;2273;-44
2022/12/22 12:58:43;;;;;;;;;;;22.20;34.00;;;;;;499890;237;1961;-41
2022/12/22 13:00:47;;;;;;;;;;;22.10;34.00;;;;;;499927;237;1688;-44
2022/12/22 13:02:47;;;;;;;;;;;22.10;34.00;;;;;;499872;238;2351;-43
2022/12/22 13:04:48;;;;;;;;;;;22.10;34.00;;;;;;499937;237;2026;-44
2022/12/22 13:06:50;;;;;;;;;;;22.10;34.00;;;;;;499811;237;2112;-43
2022/12/22 13:08:51;;;;;;;;;;;22.10;34.00;;;;;;499985;237;1720;-43
2022/12/22 13:10:52;;;;;;;;;;;22.10;34.10;;;;;;500033;237;2330;-41
2022/12/22 13:12:54;;;;;;;;;;;22.10;34.10;;;;;;499993;237;1805;-44
2022/12/22 13:14:56;;;;;;;;;;;22.10;34.10;;;;;;499972;237;2073;-44
2022/12/22 13:16:58;;;;;;;;;;;22.10;34.00;;;;;;500046;237;1984;-44
2022/12/22 13:18:59;;;;;;;;;;;22.10;34.10;;;;;;499935;237;2424;-42
2022/12/22 13:21:02;;;;;;;;;;;22.10;34.10;;;;;;500050;237;2208;-44
2022/12/22 13:23:03;;;;;;;;;;;22.10;34.10;;;;;;500010;237;2293;-44
2022/12/22 13:25:05;;;;;;;;;;;22.10;34.10;;;;;;499918;237;3883;-42
2022/12/22 13:27:06;;;;;;;;;;;22.10;34.10;;;;;;499950;237;1688;-41
2022/12/22 13:29:08;;;;;;;;;;;22.10;34.00;;;;;;500009;237;2146;-43
2022/12/22 13:31:10;;;;;;;;;;;22.10;34.00;;;;;;499981;237;2207;-44
2022/12/22 13:33:11;;;;;;;;;;;22.10;34.00;;;;;;499839;237;1785;-45
2022/12/22 13:35:12;;;;;;;;;;;22.10;34.00;;;;;;500009;237;1841;-44
2022/12/22 13:37:14;;;;;;;;;;;22.10;34.10;;;;;;499904;237;2162;-43
2022/12/22 13:39:15;;;;;;;;;;;22.10;34.00;;;;;;499888;237;1552;-44
2022/12/22 13:41:16;;;;;;;;;;;22.10;34.10;;;;;;499939;237;2030;-44
2022/12/22 13:43:18;;;;;;;;;;;22.10;34.00;;;;;;499986;237;2183;-44
2022/12/22 13:45:20;;;;;;;;;;;22.10;34.00;;;;;;499840;237;2391;-44
2022/12/22 13:47:22;;;;;;;;;;;22.20;34.00;;;;;;499854;238;1990;-44
2022/12/22 13:49:23;;;;;;;;;;;22.40;33.80;;;;;;500021;237;1592;-44
2022/12/22 13:51:24;;;;;;;;;;;22.40;33.60;;;;;;500085;237;2288;-40
2022/12/22 13:53:26;;;;;;;;;;;22.40;33.60;;;;;;500068;237;1858;-44
2022/12/22 13:55:27;;;;;;;;;;;22.40;33.70;;;;;;500081;237;1714;-44
2022/12/22 13:57:29;;;;;;;;;;;22.30;33.70;;;;;;500126;237;2265;-43
2022/12/22 13:59:30;;;;;;;;;;;22.30;33.80;;;;;;500247;237;2091;-44
2022/12/22 14:01:32;;;;;;;;;;;22.20;33.80;;;;;;499902;238;1784;-44
2022/12/22 14:03:33;;;;;;;;;;;22.20;33.90;;;;;;500302;237;2169;-44
2022/12/22 14:05:34;;;;;;;;;;;22.20;33.90;;;;;;500207;237;2432;-42
2022/12/22 14:07:36;;;;;;;;;;;22.20;33.90;;;;;;500177;237;1948;-43
2022/12/22 14:09:38;;;;;;;;;;;22.20;33.90;;;;;;500176;237;2075;-43
2022/12/22 14:11:39;;;;;;;;;;;22.20;33.90;;;;;;500148;237;1718;-44
2022/12/22 14:13:40;;;;;;;;;;;22.20;33.90;;;;;;499928;237;1956;-45
2022/12/22 14:15:41;;;;;;;;;;;22.20;33.90;;;;;;500073;237;2485;-44
2022/12/22 14:17:43;;;;;;;;;;;22.20;33.90;;;;;;500180;237;1831;-44
2022/12/22 14:19:45;;;;;;;;;;;22.20;34.00;;;;;;500111;237;1789;-44
2022/12/22 14:21:46;;;;;;;;;;;22.20;33.90;;;;;;500006;237;2567;-40
2022/12/22 14:23:48;;;;;;;;;;;22.20;33.90;;;;;;499905;237;2184;-44
2022/12/22 14:25:49;;;;;;;;;;;22.20;34.00;;;;;;499930;237;2041;-40
2022/12/22 14:27:51;;;;;;;;;;;22.20;34.00;;;;;;500068;238;2224;-40
2022/12/22 14:29:52;;;;;;;;;;;22.20;33.90;;;;;;500007;238;2917;-44
2022/12/22 14:31:53;;;;;;;;;;;22.20;33.90;;;;;;500063;237;2646;-41
2022/12/22 14:33:55;;;;;;;;;;;22.20;33.90;;;;;;500160;237;2467;-44
2022/12/22 14:35:56;;;;;;;;;;;22.30;33.90;;;;;;500046;237;2263;-45
2022/12/22 14:37:58;;;;;;;;;;;22.50;33.70;;;;;;499968;237;1922;-44
2022/12/22 14:39:59;;;;;;;;;;;22.50;33.40;;;;;;500133;237;2005;-44
2022/12/22 14:42:00;;;;;;;;;;;22.50;33.40;;;;;;500179;237;1663;-44
2022/12/22 14:44:02;;;;;;;;;;;22.50;33.50;;;;;;500050;237;2188;-43
2022/12/22 14:46:04;;;;;;;;;;;22.40;33.60;;;;;;500098;237;2123;-43
2022/12/22 14:48:05;;;;;;;;;;;22.30;33.70;;;;;;500098;237;2184;-42
2022/12/22 14:50:08;;;;;;;;;;;22.30;33.70;;;;;;500134;237;2441;-44
2022/12/22 14:52:08;;;;;;;;;;;22.30;33.80;;;;;;500165;238;1808;-43
2022/12/22 14:54:10;;;;;;;;;;;22.20;33.80;;;;;;500264;237;1938;-44
2022/12/22 14:56:11;;;;;;;;;;;22.20;33.90;;;;;;500124;237;1709;-43
2022/12/22 14:58:13;;;;;;;;;;;22.20;33.90;;;;;;500258;238;1954;-44
2022/12/22 15:00:14;;;;;;;;;;;22.20;33.90;;;;;;500137;237;2157;-44
2022/12/22 15:02:16;;;;;;;;;;;22.30;33.90;;;;;;499979;237;1998;-44
2022/12/22 15:04:17;;;;;;;;;;;22.20;33.90;;;;;;500035;237;2216;-44
2022/12/22 15:06:19;;;;;;;;;;;22.20;33.90;;;;;;499891;237;2239;-43
2022/12/22 15:08:20;;;;;;;;;;;22.20;34.00;;;;;;499932;237;1916;-44
2022/12/22 15:10:21;;;;;;;;;;;22.20;33.90;;;;;;499858;237;1898;-44
2022/12/22 15:12:23;;;;;;;;;;;22.20;33.90;;;;;;499799;237;1760;-44
2022/12/22 15:14:24;;;;;;;;;;;22.20;33.90;;;;;;499901;237;1863;-44
2022/12/22 15:16:26;;;;;;;;;;;22.30;33.90;;;;;;499852;237;1746;-44
2022/12/22 15:18:28;;;;;;;;;;;22.20;33.90;;;;;;499990;237;2230;-44
2022/12/22 15:20:29;;;;;;;;;;;22.20;33.90;;;;;;500044;237;2208;-44
2022/12/22 15:22:31;;;;;;;;;;;22.20;33.90;;;;;;499957;237;1888;-42
2022/12/22 15:24:33;;;;;;;;;;;22.20;33.90;;;;;;500088;237;2200;-44
2022/12/22 15:26:35;;;;;;;;;;;22.20;33.90;;;;;;499896;237;1998;-44
2022/12/22 15:28:36;;;;;;;;;;;22.20;34.00;;;;;;500003;237;2376;-44
2022/12/22 15:30:38;;;;;;;;;;;22.20;33.90;;;;;;499922;237;2141;-44
2022/12/22 15:32:39;;;;;;;;;;;22.20;33.90;;;;;;499964;237;1700;-44
2022/12/22 15:34:40;;;;;;;;;;;22.20;33.90;;;;;;500095;237;1804;-44
2022/12/22 15:36:41;;;;;;;;;;;22.20;34.00;;;;;;500038;237;1707;-44
2022/12/22 15:38:43;;;;;;;;;;;22.20;34.00;;;;;;499932;237;2110;-42